Time;durP1;ratioP1;P1;durP2;ratioP2;P2;SDS_P1;SDS_P2;PMS_P1;PMS_P2;Temp;Humidity;BMP_temperature;BMP_pressure;BME280_temperature;BME280_humidity;BME280_pressure;Samples;Min_cycle;Max_cycle;Signal;HPM_P1;HPM_P2
2022/06/02 00:01:08;;;;;;;3.20;1.20;;;16.30;89.20;;;;;;5091206;28;20651;-89
2022/06/02 00:03:42;;;;;;;1.27;1.03;;;16.30;89.80;;;;;;5091168;28;20620;-89
2022/06/02 00:06:16;;;;;;;2.20;1.10;;;16.20;90.20;;;;;;5090240;28;20632;-88
2022/06/02 00:08:56;;;;;;;1.20;1.10;;;16.10;90.30;;;;;;5091383;28;21246;-89
2022/06/02 00:11:42;;;;;;;1.77;0.87;;;16.10;90.70;;;;;;5086070;28;21339;-88
2022/06/02 00:14:13;;;;;;;2.80;1.20;;;16.10;90.90;;;;;;5092071;28;21519;-88
2022/06/02 00:16:51;;;;;;;1.63;1.20;;;16.10;91.00;;;;;;5095096;28;20608;-88
2022/06/02 00:19:27;;;;;;;4.03;1.10;;;16.00;91.50;;;;;;5085843;28;20624;-89
2022/06/02 00:21:59;;;;;;;1.20;1.10;;;15.90;91.30;;;;;;5094983;28;21347;-88
2022/06/02 00:24:36;;;;;;;5.60;1.30;;;16.00;91.50;;;;;;5096589;28;20964;-89
2022/06/02 00:27:09;;;;;;;0.70;0.70;;;15.90;91.40;;;;;;5093025;28;20638;-88
2022/06/02 00:29:45;;;;;;;1.13;0.90;;;15.90;91.40;;;;;;5092539;28;20644;-89
2022/06/02 00:32:17;;;;;;;1.27;1.17;;;15.90;91.40;;;;;;5090976;28;20623;-88
2022/06/02 00:34:58;;;;;;;2.03;1.20;;;15.90;91.40;;;;;;5091253;28;20635;-89
2022/06/02 00:37:32;;;;;;;1.43;0.90;;;15.90;91.30;;;;;;5086114;28;20635;-88
2022/06/02 00:40:01;;;;;;;0.90;0.90;;;15.90;90.90;;;;;;5086049;28;20647;-88
2022/06/02 00:42:41;;;;;;;0.90;0.90;;;15.80;90.80;;;;;;5089908;28;20612;-88
2022/06/02 00:45:12;;;;;;;2.40;1.17;;;15.80;90.40;;;;;;5087142;28;20649;-88
2022/06/02 00:47:52;;;;;;;1.47;1.00;;;15.80;90.20;;;;;;5085630;28;20587;-89
2022/06/02 00:50:35;;;;;;;0.73;0.70;;;15.80;90.00;;;;;;5087115;28;20652;-88
2022/06/02 00:53:10;;;;;;;1.57;0.83;;;15.80;90.00;;;;;;5090854;28;20650;-89
2022/06/02 00:58:43;;;;;;;1.57;1.20;;;15.80;90.30;;;;;;5046732;28;20742;-89
2022/06/02 01:01:14;;;;;;;1.70;1.43;;;15.70;90.80;;;;;;5085411;28;20792;-90
2022/06/02 01:03:43;;;;;;;2.20;0.90;;;15.70;91.10;;;;;;5090832;28;20592;-90
2022/06/02 01:06:28;;;;;;;1.43;0.60;;;15.70;91.30;;;;;;5087376;28;20628;-89
2022/06/02 01:09:10;;;;;;;2.20;1.00;;;15.60;91.40;;;;;;5088221;28;20626;-88
2022/06/02 01:11:43;;;;;;;2.80;1.60;;;15.60;91.50;;;;;;5090999;28;20620;-89
2022/06/02 01:14:29;;;;;;;0.97;0.90;;;15.50;91.80;;;;;;5091859;28;20631;-88
2022/06/02 01:17:05;;;;;;;1.43;0.90;;;15.50;91.80;;;;;;5090826;28;20626;-88
2022/06/02 01:19:58;;;;;;;1.67;0.90;;;15.50;92.00;;;;;;5095548;28;21059;-89
2022/06/02 01:22:59;;;;;;;1.00;0.83;;;15.50;92.60;;;;;;5089916;28;20612;-88
2022/06/02 01:25:52;;;;;;;3.10;1.30;;;15.50;93.40;;;;;;5088390;28;20636;-88
2022/06/02 01:28:38;;;;;;;2.47;1.00;;;15.40;93.70;;;;;;5082779;28;20635;-88
2022/06/02 01:31:19;;;;;;;1.43;0.97;;;15.40;93.90;;;;;;5086923;28;20655;-88
2022/06/02 01:33:52;;;;;;;1.23;1.10;;;15.40;94.10;;;;;;5091061;28;20664;-88
2022/06/02 01:36:26;;;;;;;2.10;1.30;;;15.30;94.30;;;;;;5088998;28;20628;-89
2022/06/02 01:39:05;;;;;;;2.90;1.10;;;15.40;94.60;;;;;;5091041;28;20576;-89
2022/06/02 01:41:47;;;;;;;1.63;1.20;;;15.40;94.50;;;;;;5087400;28;21072;-89
2022/06/02 01:44:19;;;;;;;1.37;1.17;;;15.30;94.80;;;;;;5095729;28;20630;-90
2022/06/02 01:46:52;;;;;;;1.23;1.13;;;15.30;95.00;;;;;;5110664;28;20616;-90
2022/06/02 01:49:33;;;;;;;1.20;1.10;;;15.20;95.40;;;;;;5102499;28;20601;-89
2022/06/02 01:52:17;;;;;;;1.50;1.40;;;15.20;95.60;;;;;;5094752;28;20650;-88
2022/06/02 01:54:54;;;;;;;2.47;1.20;;;15.10;95.90;;;;;;5087661;28;20631;-89
2022/06/02 01:57:37;;;;;;;3.23;1.20;;;15.00;98.30;;;;;;5084568;28;20581;-90
2022/06/02 02:00:09;;;;;;;1.30;1.17;;;15.00;99.90;;;;;;5088653;28;21323;-90
2022/06/02 02:02:51;;;;;;;3.83;1.30;;;14.90;99.60;;;;;;5091052;28;20700;-90
2022/06/02 02:05:35;;;;;;;1.70;1.03;;;14.90;99.10;;;;;;5074819;28;21174;-90
2022/06/02 02:08:25;;;;;;;1.17;1.07;;;14.90;97.60;;;;;;5087529;28;20664;-90
2022/06/02 02:11:05;;;;;;;1.47;1.00;;;14.90;97.60;;;;;;5085965;28;20659;-90
2022/06/02 02:13:48;;;;;;;1.70;1.40;;;14.90;97.70;;;;;;5090522;28;20745;-90
2022/06/02 02:16:24;;;;;;;2.30;1.20;;;14.80;97.90;;;;;;5094413;28;20644;-91
2022/06/02 02:19:08;;;;;;;1.27;1.17;;;14.80;97.90;;;;;;5090477;28;20630;-90
2022/06/02 02:21:47;;;;;;;2.73;1.13;;;14.80;98.10;;;;;;5092526;28;21179;-90
2022/06/02 02:24:24;;;;;;;1.77;1.17;;;14.80;97.80;;;;;;5091078;28;21169;-91
2022/06/02 02:26:57;;;;;;;1.20;1.10;;;14.70;98.50;;;;;;5091802;28;20615;-90
2022/06/02 02:29:40;;;;;;;1.53;1.20;;;14.70;99.80;;;;;;5094767;28;20989;-91
2022/06/02 02:32:17;;;;;;;2.47;1.13;;;14.60;99.90;;;;;;5095094;28;21052;-90
2022/06/02 02:34:55;;;;;;;1.60;1.50;;;14.60;99.90;;;;;;5094043;28;20620;-90
2022/06/02 02:37:38;;;;;;;2.20;1.30;;;14.60;99.90;;;;;;5092256;28;20992;-89
2022/06/02 02:40:13;;;;;;;1.17;1.07;;;14.60;99.90;;;;;;5085857;28;20691;-89
2022/06/02 02:42:47;;;;;;;1.40;1.13;;;14.60;99.90;;;;;;5090329;28;20620;-89
2022/06/02 02:45:28;;;;;;;2.10;1.00;;;14.50;99.90;;;;;;5092072;28;20627;-90
2022/06/02 02:48:00;;;;;;;2.10;1.10;;;14.50;99.90;;;;;;5093019;28;21017;-90
2022/06/02 02:50:35;;;;;;;1.27;1.03;;;14.50;99.90;;;;;;5090164;28;21249;-90
2022/06/02 02:53:10;;;;;;;3.13;1.17;;;14.50;99.90;;;;;;5091823;28;21256;-90
2022/06/02 02:55:42;;;;;;;1.73;0.93;;;14.50;99.90;;;;;;5100897;28;20615;-89
2022/06/02 02:58:16;;;;;;;2.00;1.00;;;14.40;99.90;;;;;;5101013;28;20620;-90
2022/06/02 03:00:59;;;;;;;2.70;1.30;;;14.40;99.90;;;;;;5093010;28;20648;-90
2022/06/02 03:03:32;;;;;;;1.33;1.23;;;14.50;99.90;;;;;;5089547;28;20718;-89
2022/06/02 03:06:13;;;;;;;1.80;1.60;;;14.50;99.90;;;;;;5090881;28;20624;-89
2022/06/02 03:08:47;;;;;;;3.13;1.00;;;14.50;99.90;;;;;;5091395;28;21214;-88
2022/06/02 03:11:33;;;;;;;1.50;1.40;;;14.40;99.90;;;;;;5092595;28;20652;-88
2022/06/02 03:14:10;;;;;;;2.40;1.60;;;14.50;99.90;;;;;;5087067;28;20667;-89
2022/06/02 03:16:40;;;;;;;3.40;1.37;;;14.50;99.80;;;;;;5096702;28;20721;-90
2022/06/02 03:19:19;;;;;;;1.70;1.40;;;14.40;99.90;;;;;;5090963;28;20635;-89
2022/06/02 03:21:54;;;;;;;0.90;0.90;;;14.30;99.90;;;;;;5075989;28;20623;-89
2022/06/02 03:24:44;;;;;;;2.33;1.20;;;14.30;99.90;;;;;;5097807;28;20616;-89
2022/06/02 03:27:24;;;;;;;2.37;1.60;;;14.20;99.90;;;;;;5090506;28;20640;-89
2022/06/02 03:30:01;;;;;;;1.83;1.07;;;14.10;99.90;;;;;;5087718;28;21334;-88
2022/06/02 03:32:52;;;;;;;1.53;1.10;;;14.10;99.90;;;;;;5096501;28;20662;-89
2022/06/02 03:35:30;;;;;;;1.90;0.97;;;14.10;99.90;;;;;;5093400;28;20637;-88
2022/06/02 03:38:11;;;;;;;2.20;1.20;;;14.00;99.90;;;;;;5094722;28;20628;-88
2022/06/02 03:41:01;;;;;;;5.33;1.33;;;14.00;99.90;;;;;;5089800;28;21020;-88
2022/06/02 03:43:34;;;;;;;1.33;1.07;;;13.90;99.90;;;;;;5090802;28;20620;-87
2022/06/02 03:46:15;;;;;;;2.80;1.40;;;13.90;99.90;;;;;;5096819;28;21205;-88
2022/06/02 03:49:03;;;;;;;2.20;1.30;;;13.90;99.90;;;;;;5093525;28;20619;-88
2022/06/02 03:51:40;;;;;;;2.70;1.17;;;13.90;99.90;;;;;;5099910;28;20619;-87
2022/06/02 03:54:43;;;;;;;1.40;1.30;;;13.80;99.90;;;;;;5101362;28;22150;-87
2022/06/02 03:57:26;;;;;;;1.70;1.60;;;13.80;99.90;;;;;;5079243;28;20691;-88
2022/06/02 04:00:07;;;;;;;1.93;1.40;;;13.80;99.90;;;;;;5089423;28;20652;-89
2022/06/02 04:02:41;;;;;;;1.57;0.90;;;13.80;99.90;;;;;;5091839;28;21097;-87
2022/06/02 04:05:20;;;;;;;2.30;1.80;;;13.70;99.90;;;;;;5089822;28;20623;-89
2022/06/02 04:08:06;;;;;;;4.13;1.40;;;13.70;99.90;;;;;;5091356;28;20635;-88
2022/06/02 04:10:40;;;;;;;1.93;1.30;;;13.70;99.90;;;;;;5088996;28;20655;-88
2022/06/02 04:13:38;;;;;;;1.10;1.00;;;13.60;99.90;;;;;;5090253;28;20671;-87
2022/06/02 04:16:33;;;;;;;1.37;0.90;;;13.70;99.90;;;;;;5093179;28;20722;-88
2022/06/02 04:22:17;;;;;;;1.10;1.00;;;13.60;99.90;;;;;;5093319;28;20576;-88
2022/06/02 04:24:55;;;;;;;1.30;0.93;;;13.30;99.90;;;;;;5092717;28;20621;-91
2022/06/02 04:27:32;;;;;;;3.87;2.10;;;13.70;99.90;;;;;;5090088;28;20634;-92
2022/06/02 04:30:16;;;;;;;2.20;1.33;;;13.70;99.90;;;;;;5091927;28;20976;-91
2022/06/02 04:32:52;;;;;;;1.53;1.40;;;13.80;99.90;;;;;;5098190;28;20750;-92
2022/06/02 04:35:27;;;;;;;1.83;1.47;;;13.90;99.90;;;;;;5090166;28;20637;-92
2022/06/02 04:38:00;;;;;;;1.63;1.00;;;14.00;99.90;;;;;;5097345;28;21074;-91
2022/06/02 04:40:39;;;;;;;1.10;1.10;;;14.10;99.90;;;;;;5093812;28;21288;-91
2022/06/02 04:43:16;;;;;;;1.80;1.20;;;14.20;99.90;;;;;;5092002;28;20634;-91
2022/06/02 04:45:56;;;;;;;2.37;1.37;;;14.20;99.90;;;;;;5095996;28;20573;-89
2022/06/02 04:48:31;;;;;;;2.30;1.10;;;14.20;99.90;;;;;;5093973;28;20636;-89
2022/06/02 04:51:06;;;;;;;1.37;1.27;;;14.20;99.90;;;;;;5096359;28;20607;-90
2022/06/02 04:53:39;;;;;;;1.40;1.30;;;14.30;99.90;;;;;;5091583;28;20687;-90
2022/06/02 04:56:14;;;;;;;1.47;1.13;;;14.30;99.90;;;;;;5093988;28;20667;-90
2022/06/02 04:58:54;;;;;;;1.43;1.33;;;14.40;99.90;;;;;;5090790;28;20600;-89
2022/06/02 05:01:34;;;;;;;3.10;1.57;;;14.40;99.90;;;;;;5093909;28;20639;-88
2022/06/02 05:04:13;;;;;;;1.50;1.40;;;14.40;99.90;;;;;;5090684;28;20615;-89
2022/06/02 05:06:46;;;;;;;2.30;1.20;;;14.50;99.90;;;;;;5096839;28;20630;-90
2022/06/02 05:09:19;;;;;;;1.90;1.20;;;14.40;99.90;;;;;;5096605;28;20716;-89
2022/06/02 05:12:00;;;;;;;4.10;1.37;;;14.50;99.90;;;;;;5100439;28;21199;-89
2022/06/02 05:14:33;;;;;;;1.97;1.37;;;14.60;99.90;;;;;;5097856;28;20663;-89
2022/06/02 05:17:26;;;;;;;2.17;1.40;;;14.70;99.90;;;;;;5095387;28;20723;-90
2022/06/02 05:20:22;;;;;;;2.67;1.47;;;14.80;99.90;;;;;;5091251;28;20644;-89
2022/06/02 05:23:20;;;;;;;4.87;1.37;;;14.90;99.90;;;;;;5069906;28;20613;-89
2022/06/02 05:26:18;;;;;;;3.73;1.50;;;15.00;99.90;;;;;;5092845;28;20716;-89
2022/06/02 05:29:28;;;;;;;2.20;1.10;;;15.10;99.90;;;;;;5094319;28;20616;-90
2022/06/02 05:32:36;;;;;;;2.13;1.50;;;15.20;99.90;;;;;;5089379;28;20735;-89
2022/06/02 05:35:33;;;;;;;2.10;1.80;;;15.20;99.90;;;;;;5084756;28;20628;-89
2022/06/02 05:38:23;;;;;;;4.17;1.60;;;15.30;99.90;;;;;;5093845;28;20612;-89
2022/06/02 05:40:57;;;;;;;2.70;1.40;;;15.40;99.90;;;;;;5093249;28;21111;-89
2022/06/02 05:43:34;;;;;;;1.63;1.30;;;15.70;99.90;;;;;;5093891;28;21016;-89
2022/06/02 05:46:14;;;;;;;3.10;1.70;;;15.70;98.80;;;;;;5097839;28;20622;-90
2022/06/02 05:49:09;;;;;;;1.53;1.40;;;15.90;97.30;;;;;;5099947;28;20654;-90
2022/06/02 05:51:48;;;;;;;3.50;1.63;;;16.00;97.50;;;;;;5099313;28;20738;-89
2022/06/02 05:54:27;;;;;;;2.70;1.83;;;16.20;97.10;;;;;;5095186;28;20674;-90
2022/06/02 05:57:17;;;;;;;1.80;1.70;;;16.40;96.90;;;;;;5104627;28;20611;-90
2022/06/02 05:59:56;;;;;;;3.10;1.97;;;16.40;96.50;;;;;;5086693;28;21015;-89
2022/06/02 06:02:38;;;;;;;2.80;2.03;;;16.50;95.70;;;;;;5095973;28;20626;-89
2022/06/02 06:05:29;;;;;;;2.40;2.20;;;16.60;95.30;;;;;;5092033;28;20754;-90
2022/06/02 06:08:39;;;;;;;2.33;2.13;;;16.70;95.30;;;;;;5097086;28;20640;-89
2022/06/02 06:11:26;;;;;;;2.50;1.80;;;16.80;94.20;;;;;;5097924;28;21240;-90
2022/06/02 06:14:20;;;;;;;3.23;1.53;;;16.90;94.50;;;;;;5090187;28;20670;-89
2022/06/02 06:16:58;;;;;;;6.90;1.70;;;16.90;93.60;;;;;;5095039;28;20628;-91
2022/06/02 06:19:49;;;;;;;2.00;1.30;;;17.00;93.10;;;;;;5090549;28;20696;-90
2022/06/02 06:22:51;;;;;;;2.47;1.40;;;17.10;93.30;;;;;;5093966;28;20650;-90
2022/06/02 06:25:40;;;;;;;2.30;1.53;;;17.20;93.50;;;;;;5094494;28;20576;-90
2022/06/02 06:28:13;;;;;;;1.60;1.50;;;17.40;94.00;;;;;;5098578;28;20624;-89
2022/06/02 06:31:01;;;;;;;3.07;1.33;;;17.50;94.00;;;;;;5093189;28;21123;-89
2022/06/02 06:33:46;;;;;;;1.73;1.60;;;17.50;93.30;;;;;;5091357;28;20683;-89
2022/06/02 06:36:38;;;;;;;1.60;1.40;;;17.60;93.00;;;;;;5092239;28;20636;-90
2022/06/02 06:39:14;;;;;;;1.43;1.33;;;17.70;93.00;;;;;;5087858;28;20652;-89
2022/06/02 06:42:03;;;;;;;1.90;1.53;;;17.70;92.20;;;;;;5091286;28;20687;-89
2022/06/02 06:44:39;;;;;;;2.53;1.80;;;17.80;92.20;;;;;;5084558;28;20631;-89
2022/06/02 06:47:13;;;;;;;3.37;1.40;;;17.80;92.10;;;;;;5091629;28;20628;-89
2022/06/02 06:49:54;;;;;;;2.00;1.10;;;17.90;91.80;;;;;;5093252;28;20654;-89
2022/06/02 06:52:37;;;;;;;1.37;1.23;;;17.90;91.30;;;;;;5091262;28;20626;-89
2022/06/02 06:55:15;;;;;;;1.63;1.30;;;18.00;92.20;;;;;;5090470;28;20762;-89
2022/06/02 06:57:49;;;;;;;3.13;1.30;;;18.20;91.90;;;;;;5090523;28;20624;-90
2022/06/02 07:00:21;;;;;;;2.10;1.50;;;18.30;91.30;;;;;;5087128;28;20724;-89
2022/06/02 07:03:03;;;;;;;1.50;1.40;;;18.30;91.20;;;;;;5090983;28;20701;-89
2022/06/02 07:05:36;;;;;;;1.30;1.20;;;18.40;91.00;;;;;;5088774;28;20640;-89
2022/06/02 07:08:12;;;;;;;1.20;1.10;;;18.50;91.10;;;;;;5089766;28;20651;-89
2022/06/02 07:10:49;;;;;;;1.77;1.37;;;18.60;90.60;;;;;;5094137;28;20629;-90
2022/06/02 07:13:23;;;;;;;3.10;1.37;;;18.70;90.30;;;;;;5092553;28;20790;-90
2022/06/02 07:15:56;;;;;;;1.20;1.10;;;18.80;90.10;;;;;;5097792;28;20625;-89
2022/06/02 07:18:40;;;;;;;4.03;2.00;;;18.80;89.90;;;;;;5092002;28;20660;-88
2022/06/02 07:21:16;;;;;;;2.97;1.33;;;18.90;90.50;;;;;;5098657;28;20630;-89
2022/06/02 07:24:08;;;;;;;1.13;1.03;;;19.10;90.20;;;;;;5101725;28;20614;-89
2022/06/02 07:26:53;;;;;;;3.23;1.47;;;19.20;89.30;;;;;;5095771;28;20623;-89
2022/06/02 07:29:30;;;;;;;2.07;1.43;;;19.30;88.40;;;;;;5088740;28;20643;-90
2022/06/02 07:32:18;;;;;;;1.27;1.17;;;19.40;88.30;;;;;;5093860;28;20687;-89
2022/06/02 07:35:23;;;;;;;3.00;1.33;;;19.50;87.80;;;;;;5094356;28;20667;-90
2022/06/02 07:37:59;;;;;;;1.57;1.47;;;19.60;86.60;;;;;;5096085;28;20634;-89
2022/06/02 07:40:38;;;;;;;2.57;1.17;;;19.70;86.10;;;;;;5095975;28;20625;-88
2022/06/02 07:43:34;;;;;;;1.10;0.97;;;19.70;86.00;;;;;;5090334;28;20616;-89
2022/06/02 07:46:17;;;;;;;1.73;1.40;;;19.80;84.20;;;;;;5101979;28;20611;-92
2022/06/02 07:49:12;;;;;;;1.27;1.17;;;19.80;83.70;;;;;;5099639;28;20687;-89
2022/06/02 07:51:43;;;;;;;1.53;0.90;;;19.80;83.70;;;;;;5053666;28;20628;-89
2022/06/02 07:54:22;;;;;;;1.70;1.20;;;19.80;82.90;;;;;;5089254;28;21300;-88
2022/06/02 07:57:00;;;;;;;2.93;1.13;;;19.80;83.40;;;;;;5092232;28;20620;-89
2022/06/02 08:00:05;;;;;;;3.70;1.17;;;19.80;83.30;;;;;;5088977;28;20675;-89
2022/06/02 08:02:56;;;;;;;3.50;1.77;;;19.80;83.40;;;;;;5058693;28;20646;-88
2022/06/02 08:05:34;;;;;;;1.70;1.23;;;19.80;82.00;;;;;;5091262;28;20684;-89
2022/06/02 08:08:07;;;;;;;1.40;1.20;;;19.90;83.10;;;;;;5091830;28;20645;-88
2022/06/02 08:10:46;;;;;;;1.30;1.20;;;19.90;82.80;;;;;;5091400;28;20631;-88
2022/06/02 08:13:20;;;;;;;2.97;1.60;;;19.90;83.10;;;;;;5090926;28;21092;-88
2022/06/02 08:15:55;;;;;;;1.40;1.30;;;20.10;83.50;;;;;;5091243;28;20675;-88
2022/06/02 08:18:48;;;;;;;3.27;1.67;;;20.20;81.90;;;;;;5089364;28;20659;-89
2022/06/02 08:21:25;;;;;;;1.13;0.90;;;20.20;82.70;;;;;;5092306;28;20651;-88
2022/06/02 08:24:20;;;;;;;1.40;1.30;;;20.30;83.20;;;;;;5095826;28;20627;-89
2022/06/02 08:26:58;;;;;;;1.80;1.30;;;20.30;80.80;;;;;;5091950;28;20624;-89
2022/06/02 08:29:39;;;;;;;3.07;1.30;;;20.50;82.30;;;;;;5090708;28;20662;-89
2022/06/02 08:32:29;;;;;;;1.40;1.30;;;20.40;80.00;;;;;;5085588;28;20616;-89
2022/06/02 08:35:05;;;;;;;1.60;1.03;;;20.40;79.80;;;;;;5093029;28;20660;-88
2022/06/02 08:37:41;;;;;;;2.67;1.33;;;20.50;79.30;;;;;;5086437;28;21230;-89
2022/06/02 08:40:45;;;;;;;1.70;1.20;;;20.60;80.60;;;;;;5088290;28;20674;-89
2022/06/02 08:43:40;;;;;;;2.00;0.90;;;20.80;79.50;;;;;;5092003;28;20719;-89
2022/06/02 08:46:32;;;;;;;2.00;1.43;;;20.90;78.70;;;;;;5084999;28;20632;-89
2022/06/02 08:49:25;;;;;;;2.20;1.00;;;21.00;78.60;;;;;;5088242;28;20651;-89
2022/06/02 08:52:28;;;;;;;2.57;1.23;;;21.10;79.20;;;;;;5090653;28;20658;-89
2022/06/02 08:55:38;;;;;;;1.30;1.20;;;21.20;79.10;;;;;;5055819;28;20679;-89
2022/06/02 08:58:52;;;;;;;3.80;1.20;;;21.30;78.00;;;;;;5083382;28;20639;-89
2022/06/02 09:01:32;;;;;;;2.37;1.30;;;21.50;79.00;;;;;;5045600;28;21152;-89
2022/06/02 09:04:32;;;;;;;1.90;1.37;;;21.50;78.10;;;;;;5091842;28;20654;-89
2022/06/02 09:07:18;;;;;;;1.20;1.10;;;21.60;77.50;;;;;;5088153;28;20644;-88
2022/06/02 09:10:03;;;;;;;1.30;1.20;;;21.70;77.40;;;;;;5091220;28;20644;-89
2022/06/02 09:13:15;;;;;;;1.90;1.20;;;21.70;75.90;;;;;;5087650;28;20624;-89
2022/06/02 09:16:16;;;;;;;2.97;1.20;;;21.70;76.60;;;;;;5070046;28;21229;-89
2022/06/02 09:19:12;;;;;;;2.43;1.10;;;21.90;76.10;;;;;;5085742;28;20648;-89
2022/06/02 09:21:57;;;;;;;2.43;1.20;;;22.00;76.90;;;;;;5069381;28;20628;-89
2022/06/02 09:24:29;;;;;;;1.37;1.10;;;22.00;75.10;;;;;;5087259;28;20728;-89
2022/06/02 09:27:20;;;;;;;1.27;1.17;;;21.90;74.30;;;;;;5084900;28;20628;-89
2022/06/02 09:29:51;;;;;;;3.13;1.50;;;21.80;74.40;;;;;;5089172;28;20686;-89
2022/06/02 09:32:36;;;;;;;3.60;1.20;;;21.90;74.70;;;;;;5091562;28;20648;-89
2022/06/02 09:35:14;;;;;;;1.77;1.40;;;22.10;74.20;;;;;;5085276;28;20702;-89
2022/06/02 09:38:05;;;;;;;2.37;1.10;;;22.00;73.00;;;;;;5093220;28;20624;-89
2022/06/02 09:40:47;;;;;;;2.17;1.20;;;21.90;73.00;;;;;;5085198;28;21194;-89
2022/06/02 09:43:37;;;;;;;0.90;0.90;;;22.10;74.30;;;;;;5089487;28;20629;-89
2022/06/02 09:46:34;;;;;;;1.33;1.13;;;22.20;73.50;;;;;;5086385;28;20687;-89
2022/06/02 09:49:17;;;;;;;1.33;1.17;;;22.40;72.80;;;;;;5092722;28;20634;-89
2022/06/02 09:51:54;;;;;;;2.27;1.17;;;22.50;72.80;;;;;;5089873;28;20703;-89
2022/06/02 09:54:49;;;;;;;2.17;1.00;;;22.50;72.90;;;;;;5090588;28;20644;-89
2022/06/02 09:57:57;;;;;;;1.43;1.10;;;22.70;74.30;;;;;;5085407;28;21115;-89
2022/06/02 10:00:51;;;;;;;1.83;1.27;;;22.80;74.10;;;;;;5086473;28;20942;-88
2022/06/02 10:03:42;;;;;;;1.60;1.10;;;23.00;73.10;;;;;;5084940;28;20624;-88
2022/06/02 10:06:27;;;;;;;1.40;1.30;;;23.10;72.30;;;;;;5087513;28;20681;-88
2022/06/02 10:09:08;;;;;;;4.30;1.00;;;23.10;72.50;;;;;;5088096;28;20674;-89
2022/06/02 10:11:47;;;;;;;1.63;1.00;;;23.30;71.90;;;;;;5088392;28;20659;-89
2022/06/02 10:14:43;;;;;;;4.60;1.47;;;23.30;72.10;;;;;;5091702;28;20619;-89
2022/06/02 10:17:48;;;;;;;1.37;1.27;;;23.40;72.40;;;;;;5089360;28;20627;-88
2022/06/02 10:21:00;;;;;;;1.93;0.90;;;23.40;69.50;;;;;;5067839;28;20616;-88
2022/06/02 10:24:04;;;;;;;1.20;1.10;;;23.30;68.60;;;;;;5066235;28;20627;-88
2022/06/02 10:26:44;;;;;;;0.90;0.90;;;23.20;68.90;;;;;;5087712;28;20634;-88
2022/06/02 10:30:00;;;;;;;1.00;1.00;;;23.30;69.60;;;;;;5090951;28;21156;-87
2022/06/02 10:33:04;;;;;;;1.50;1.40;;;23.50;70.70;;;;;;5090384;28;20644;-87
2022/06/02 10:35:58;;;;;;;1.20;1.10;;;23.60;68.60;;;;;;5093665;28;21398;-87
2022/06/02 10:38:29;;;;;;;2.13;1.10;;;23.70;70.10;;;;;;5078468;28;20635;-87
2022/06/02 10:41:17;;;;;;;4.13;1.20;;;23.90;70.30;;;;;;5069249;28;20696;-88
2022/06/02 10:44:08;;;;;;;1.60;1.17;;;24.10;69.40;;;;;;5095069;28;20630;-87
2022/06/02 10:47:24;;;;;;;1.30;1.20;;;24.40;69.20;;;;;;5088753;28;20759;-87
2022/06/02 10:50:05;;;;;;;2.07;1.47;;;24.60;66.90;;;;;;5094845;28;20729;-87
2022/06/02 10:53:06;;;;;;;1.23;1.03;;;24.80;66.90;;;;;;5083882;28;20663;-87
2022/06/02 10:56:02;;;;;;;2.00;1.07;;;24.90;66.50;;;;;;5084611;28;20663;-87
2022/06/02 10:58:54;;;;;;;2.40;1.10;;;25.10;64.70;;;;;;5089267;28;20640;-87
2022/06/02 11:02:05;;;;;;;1.13;1.03;;;25.10;64.60;;;;;;5081486;28;20626;-87
2022/06/02 11:05:06;;;;;;;1.70;1.23;;;25.50;64.20;;;;;;5085639;28;20643;-87
2022/06/02 11:08:20;;;;;;;1.70;1.60;;;25.80;64.60;;;;;;5085320;28;20635;-89
2022/06/02 11:11:15;;;;;;;1.57;1.40;;;26.10;63.50;;;;;;5093099;28;20618;-91
2022/06/02 11:14:21;;;;;;;1.03;0.93;;;26.20;61.60;;;;;;5090521;28;20664;-91
2022/06/02 11:17:24;;;;;;;1.90;1.30;;;26.10;61.30;;;;;;5097848;28;20636;-89
2022/06/02 11:20:26;;;;;;;1.83;1.20;;;26.50;61.60;;;;;;5091528;28;20622;-89
2022/06/02 11:23:34;;;;;;;1.00;0.90;;;26.80;60.90;;;;;;5054389;28;20651;-90
2022/06/02 11:26:35;;;;;;;2.70;1.10;;;27.10;58.30;;;;;;5094408;28;20626;-90
2022/06/02 11:29:43;;;;;;;2.73;1.20;;;27.30;59.80;;;;;;5087977;28;20752;-88
2022/06/02 11:32:19;;;;;;;2.30;1.07;;;27.70;58.40;;;;;;5048969;28;20661;-89
2022/06/02 11:35:12;;;;;;;4.57;1.40;;;27.90;57.40;;;;;;5089857;28;20758;-89
2022/06/02 11:37:56;;;;;;;2.13;1.50;;;28.30;57.10;;;;;;5094815;28;21111;-90
2022/06/02 11:40:42;;;;;;;1.53;1.10;;;28.60;55.70;;;;;;5087905;28;20583;-91
2022/06/02 11:43:15;;;;;;;2.23;1.37;;;29.00;57.20;;;;;;5091860;28;21240;-90
2022/06/02 11:46:17;;;;;;;2.90;1.13;;;29.30;55.60;;;;;;5092674;28;20632;-90
2022/06/02 11:49:23;;;;;;;1.33;1.23;;;29.40;53.60;;;;;;5093124;28;20635;-91
2022/06/02 11:52:34;;;;;;;2.10;1.23;;;29.00;53.20;;;;;;5093025;28;21112;-90
2022/06/02 11:55:27;;;;;;;1.50;1.30;;;28.80;52.80;;;;;;5048057;28;20736;-90
2022/06/02 11:58:13;;;;;;;1.33;1.00;;;28.80;54.20;;;;;;5091132;28;20631;-88
2022/06/02 12:01:12;;;;;;;1.53;1.13;;;29.10;54.20;;;;;;5075098;28;20656;-88
2022/06/02 12:04:21;;;;;;;1.83;1.33;;;29.20;53.10;;;;;;5085725;28;20747;-89
2022/06/02 12:07:21;;;;;;;1.67;1.13;;;29.50;53.40;;;;;;5089588;28;20642;-88
2022/06/02 12:10:13;;;;;;;1.23;1.00;;;29.80;53.10;;;;;;5071568;28;20638;-89
2022/06/02 12:13:01;;;;;;;2.13;1.50;;;30.20;52.90;;;;;;5089418;28;20663;-88
2022/06/02 12:16:09;;;;;;;2.03;1.20;;;30.40;52.00;;;;;;5086580;28;20670;-88
2022/06/02 12:18:45;;;;;;;1.43;1.10;;;29.90;50.00;;;;;;5087789;28;20608;-88
2022/06/02 12:21:37;;;;;;;3.77;1.60;;;29.50;50.10;;;;;;5089798;28;20655;-87
2022/06/02 12:24:45;;;;;;;2.73;1.00;;;29.40;50.70;;;;;;5090921;28;20646;-87
2022/06/02 12:27:40;;;;;;;1.40;1.30;;;29.90;51.10;;;;;;5068439;28;20632;-88
2022/06/02 12:30:25;;;;;;;4.43;1.30;;;30.00;49.90;;;;;;5087701;28;20667;-88
2022/06/02 12:33:06;;;;;;;3.90;1.33;;;29.90;50.30;;;;;;5091116;28;20678;-88
2022/06/02 12:36:18;;;;;;;1.97;1.47;;;30.00;50.40;;;;;;5082907;28;21056;-88
2022/06/02 12:39:09;;;;;;;2.23;1.00;;;30.30;50.60;;;;;;5088757;28;20978;-88
2022/06/02 12:42:05;;;;;;;4.40;1.23;;;30.40;50.40;;;;;;5079154;28;20676;-87
2022/06/02 12:44:58;;;;;;;1.27;1.17;;;30.60;50.70;;;;;;5078640;28;20624;-88
2022/06/02 12:47:59;;;;;;;2.50;1.10;;;30.70;50.10;;;;;;5089213;28;20991;-88
2022/06/02 12:50:36;;;;;;;1.30;1.20;;;30.60;49.20;;;;;;5090597;28;20659;-88
2022/06/02 12:53:47;;;;;;;3.80;1.40;;;30.40;49.50;;;;;;5091004;28;20868;-87
2022/06/02 12:56:40;;;;;;;3.50;1.30;;;30.60;50.10;;;;;;5084283;28;21691;-87
2022/06/02 12:59:36;;;;;;;1.40;1.30;;;30.90;50.10;;;;;;5086248;28;21085;-88
2022/06/02 13:02:08;;;;;;;1.67;1.47;;;31.20;49.10;;;;;;5089970;28;20638;-88
2022/06/02 13:05:28;;;;;;;1.60;1.27;;;31.50;48.20;;;;;;5086300;28;20628;-87
2022/06/02 13:08:42;;;;;;;2.90;1.40;;;31.60;48.30;;;;;;5083812;28;20646;-87
2022/06/02 13:11:42;;;;;;;1.93;1.27;;;31.90;48.00;;;;;;5022313;28;20654;-89
2022/06/02 13:14:58;;;;;;;2.67;1.83;;;32.20;47.30;;;;;;5028404;28;20611;-88
2022/06/02 13:17:56;;;;;;;1.43;1.33;;;32.50;46.30;;;;;;5087469;28;20626;-88
2022/06/02 13:20:55;;;;;;;3.20;1.33;;;32.70;45.40;;;;;;5086530;28;21287;-88
2022/06/02 13:24:08;;;;;;;2.07;1.30;;;33.00;46.00;;;;;;5090660;28;20626;-88
2022/06/02 13:27:03;;;;;;;1.47;1.37;;;33.10;44.60;;;;;;5054774;28;20634;-88
2022/06/02 13:30:03;;;;;;;1.50;1.30;;;33.20;44.60;;;;;;5090464;28;20620;-88
2022/06/02 13:33:23;;;;;;;2.73;1.27;;;33.10;44.80;;;;;;5077263;28;20643;-88
2022/06/02 13:36:16;;;;;;;2.20;1.37;;;33.00;43.70;;;;;;5092462;28;20685;-88
2022/06/02 13:39:11;;;;;;;2.40;1.10;;;32.70;43.40;;;;;;5087147;28;20619;-87
2022/06/02 13:42:05;;;;;;;2.27;1.40;;;32.60;44.40;;;;;;5086499;28;20671;-88
2022/06/02 13:45:03;;;;;;;5.47;1.60;;;32.20;44.70;;;;;;5087071;28;20981;-88
2022/06/02 13:48:03;;;;;;;2.77;1.20;;;32.20;45.60;;;;;;5084631;28;21252;-89
2022/06/02 13:50:54;;;;;;;1.77;1.30;;;31.80;44.90;;;;;;5088430;28;20647;-89
2022/06/02 14:00:02;;;;;;;2.13;1.13;;;31.00;45.70;;;;;;5103351;28;20954;-88
2022/06/02 14:03:03;;;;;;;1.20;1.10;;;30.50;45.20;;;;;;5100948;28;20608;-89
2022/06/02 14:05:47;;;;;;;4.17;1.60;;;30.00;46.40;;;;;;5097943;28;20700;-88
2022/06/02 14:08:41;;;;;;;1.83;1.70;;;29.80;47.20;;;;;;5103605;28;21018;-89
2022/06/02 14:11:37;;;;;;;1.73;1.60;;;29.80;46.80;;;;;;5101246;28;21044;-88
2022/06/02 14:14:42;;;;;;;2.47;1.43;;;29.90;46.50;;;;;;5103251;28;20630;-88
2022/06/02 14:17:19;;;;;;;2.30;1.30;;;30.00;46.50;;;;;;5089349;28;20667;-89
2022/06/02 14:20:15;;;;;;;3.73;1.30;;;30.30;47.40;;;;;;5101902;28;20648;-88
2022/06/02 14:22:55;;;;;;;1.73;1.43;;;30.60;46.90;;;;;;5100173;28;20758;-88
2022/06/02 14:25:34;;;;;;;2.53;1.63;;;31.00;46.40;;;;;;5099291;28;20630;-89
2022/06/02 14:28:19;;;;;;;2.67;1.60;;;31.60;45.90;;;;;;5099752;28;20728;-89
2022/06/02 14:30:52;;;;;;;1.43;1.33;;;32.30;46.30;;;;;;5100140;28;20647;-87
2022/06/02 14:33:24;;;;;;;2.63;1.43;;;32.80;44.80;;;;;;5103383;28;20625;-90
2022/06/02 14:35:58;;;;;;;3.53;1.87;;;33.30;44.50;;;;;;5101182;28;20802;-91
2022/06/02 14:38:37;;;;;;;4.30;2.23;;;33.30;42.90;;;;;;5095159;28;20632;-90